sensor_id;sensor_type;location;lat;lon;timestamp;pressure;altitude;pressure_sealevel;temperature;humidity
10806;BME280;5455;53.224;6.000;2023-05-07T00:02:25;101735.75;;;13.69;100.00
10806;BME280;5455;53.224;6.000;2023-05-07T00:04:52;101738.44;;;13.66;100.00
10806;BME280;5455;53.224;6.000;2023-05-07T00:07:19;101735.19;;;13.64;100.00
10806;BME280;5455;53.224;6.000;2023-05-07T00:09:46;101742.25;;;13.61;100.00
10806;BME280;5455;53.224;6.000;2023-05-07T00:12:13;101740.28;;;13.62;100.00
10806;BME280;5455;53.224;6.000;2023-05-07T00:14:40;101744.22;;;13.61;100.00
10806;BME280;5455;53.224;6.000;2023-05-07T00:17:07;101749.50;;;13.66;100.00
10806;BME280;5455;53.224;6.000;2023-05-07T00:19:34;101745.94;;;13.65;100.00
10806;BME280;5455;53.224;6.000;2023-05-07T00:22:01;101746.75;;;13.66;100.00
10806;BME280;5455;53.224;6.000;2023-05-07T00:24:28;101752.63;;;13.64;100.00
10806;BME280;5455;53.224;6.000;2023-05-07T00:26:55;101748.59;;;13.62;100.00
10806;BME280;5455;53.224;6.000;2023-05-07T00:29:24;101748.25;;;13.63;100.00
10806;BME280;5455;53.224;6.000;2023-05-07T00:31:51;101746.66;;;13.62;100.00
10806;BME280;5455;53.224;6.000;2023-05-07T00:34:22;101753.81;;;13.63;100.00
10806;BME280;5455;53.224;6.000;2023-05-07T00:36:49;101748.16;;;13.60;100.00
10806;BME280;5455;53.224;6.000;2023-05-07T00:39:16;101747.34;;;13.59;100.00
10806;BME280;5455;53.224;6.000;2023-05-07T00:41:44;101753.34;;;13.61;100.00
10806;BME280;5455;53.224;6.000;2023-05-07T00:44:12;101755.78;;;13.63;100.00
10806;BME280;5455;53.224;6.000;2023-05-07T00:46:38;101744.06;;;13.54;100.00
10806;BME280;5455;53.224;6.000;2023-05-07T00:49:06;101747.63;;;13.54;100.00
10806;BME280;5455;53.224;6.000;2023-05-07T00:51:33;101743.63;;;13.52;100.00
10806;BME280;5455;53.224;6.000;2023-05-07T00:54:02;101744.34;;;13.49;100.00
10806;BME280;5455;53.224;6.000;2023-05-07T00:56:29;101754.94;;;13.47;100.00
10806;BME280;5455;53.224;6.000;2023-05-07T00:58:57;101750.59;;;13.46;100.00
10806;BME280;5455;53.224;6.000;2023-05-07T01:01:25;101745.75;;;13.43;100.00
10806;BME280;5455;53.224;6.000;2023-05-07T01:03:54;101746.81;;;13.38;100.00
10806;BME280;5455;53.224;6.000;2023-05-07T01:06:23;101752.34;;;13.38;100.00
10806;BME280;5455;53.224;6.000;2023-05-07T01:08:52;101751.63;;;13.41;100.00
10806;BME280;5455;53.224;6.000;2023-05-07T01:11:19;101748.06;;;13.41;100.00
10806;BME280;5455;53.224;6.000;2023-05-07T01:13:48;101745.28;;;13.41;100.00
10806;BME280;5455;53.224;6.000;2023-05-07T01:16:16;101748.06;;;13.41;100.00
10806;BME280;5455;53.224;6.000;2023-05-07T01:18:44;101746.47;;;13.40;100.00
10806;BME280;5455;53.224;6.000;2023-05-07T01:21:11;101742.88;;;13.39;100.00
10806;BME280;5455;53.224;6.000;2023-05-07T01:23:39;101746.00;;;13.38;100.00
10806;BME280;5455;53.224;6.000;2023-05-07T01:26:06;101733.22;;;13.33;100.00
10806;BME280;5455;53.224;6.000;2023-05-07T01:28:34;101735.47;;;13.28;100.00
10806;BME280;5455;53.224;6.000;2023-05-07T01:31:03;101733.03;;;13.26;100.00
10806;BME280;5455;53.224;6.000;2023-05-07T01:33:34;101742.06;;;13.23;100.00
10806;BME280;5455;53.224;6.000;2023-05-07T01:36:04;101738.47;;;13.22;100.00
10806;BME280;5455;53.224;6.000;2023-05-07T01:38:34;101744.38;;;13.21;100.00
10806;BME280;5455;53.224;6.000;2023-05-07T01:41:02;101741.94;;;13.19;100.00
10806;BME280;5455;53.224;6.000;2023-05-07T01:43:30;101732.84;;;13.19;100.00
10806;BME280;5455;53.224;6.000;2023-05-07T01:45:58;101740.25;;;13.15;100.00
10806;BME280;5455;53.224;6.000;2023-05-07T01:48:28;101735.88;;;13.14;100.00
10806;BME280;5455;53.224;6.000;2023-05-07T01:50:55;101727.56;;;13.14;100.00
10806;BME280;5455;53.224;6.000;2023-05-07T01:53:23;101736.25;;;13.12;100.00
10806;BME280;5455;53.224;6.000;2023-05-07T01:55:50;101732.81;;;13.03;100.00
10806;BME280;5455;53.224;6.000;2023-05-07T01:58:19;101733.13;;;13.02;100.00
10806;BME280;5455;53.224;6.000;2023-05-07T02:00:47;101734.66;;;12.99;100.00
10806;BME280;5455;53.224;6.000;2023-05-07T02:03:14;101740.63;;;13.01;100.00
10806;BME280;5455;53.224;6.000;2023-05-07T02:05:50;101738.69;;;13.02;100.00
10806;BME280;5455;53.224;6.000;2023-05-07T02:08:26;101737.75;;;12.98;100.00
10806;BME280;5455;53.224;6.000;2023-05-07T02:10:53;101733.84;;;12.99;100.00
10806;BME280;5455;53.224;6.000;2023-05-07T02:13:21;101729.81;;;12.96;100.00
10806;BME280;5455;53.224;6.000;2023-05-07T02:15:49;101726.25;;;12.96;100.00
10806;BME280;5455;53.224;6.000;2023-05-07T02:18:18;101729.28;;;12.91;100.00
10806;BME280;5455;53.224;6.000;2023-05-07T02:20:45;101736.88;;;12.94;100.00
10806;BME280;5455;53.224;6.000;2023-05-07T02:23:12;101746.44;;;12.96;100.00
10806;BME280;5455;53.224;6.000;2023-05-07T02:25:39;101742.69;;;12.89;100.00
10806;BME280;5455;53.224;6.000;2023-05-07T02:28:07;101739.44;;;12.87;100.00
10806;BME280;5455;53.224;6.000;2023-05-07T02:30:43;101741.75;;;12.85;100.00
10806;BME280;5455;53.224;6.000;2023-05-07T02:33:11;101743.38;;;12.86;100.00
10806;BME280;5455;53.224;6.000;2023-05-07T02:35:40;101746.03;;;12.82;100.00
10806;BME280;5455;53.224;6.000;2023-05-07T02:38:08;101746.38;;;12.81;100.00
10806;BME280;5455;53.224;6.000;2023-05-07T02:40:38;101748.34;;;12.80;100.00
10806;BME280;5455;53.224;6.000;2023-05-07T02:43:06;101740.84;;;12.81;100.00
10806;BME280;5455;53.224;6.000;2023-05-07T02:45:33;101741.09;;;12.76;100.00
10806;BME280;5455;53.224;6.000;2023-05-07T02:48:02;101744.91;;;12.71;100.00
10806;BME280;5455;53.224;6.000;2023-05-07T02:50:29;101750.94;;;12.73;100.00
10806;BME280;5455;53.224;6.000;2023-05-07T02:52:56;101748.38;;;12.68;100.00
10806;BME280;5455;53.224;6.000;2023-05-07T02:55:23;101751.84;;;12.65;100.00
10806;BME280;5455;53.224;6.000;2023-05-07T02:57:50;101752.56;;;12.62;100.00
10806;BME280;5455;53.224;6.000;2023-05-07T03:00:18;101759.72;;;12.63;100.00
10806;BME280;5455;53.224;6.000;2023-05-07T03:02:56;101758.09;;;12.62;100.00
10806;BME280;5455;53.224;6.000;2023-05-07T03:05:23;101755.69;;;12.60;100.00
10806;BME280;5455;53.224;6.000;2023-05-07T03:07:51;101751.19;;;12.56;100.00
10806;BME280;5455;53.224;6.000;2023-05-07T03:10:18;101749.59;;;12.55;100.00
10806;BME280;5455;53.224;6.000;2023-05-07T03:12:45;101756.28;;;12.54;100.00
10806;BME280;5455;53.224;6.000;2023-05-07T03:15:16;101758.59;;;12.52;100.00
10806;BME280;5455;53.224;6.000;2023-05-07T03:17:43;101756.53;;;12.49;100.00
10806;BME280;5455;53.224;6.000;2023-05-07T03:20:10;101750.19;;;12.48;100.00
10806;BME280;5455;53.224;6.000;2023-05-07T03:22:40;101753.06;;;12.52;100.00
10806;BME280;5455;53.224;6.000;2023-05-07T03:25:08;101753.75;;;12.49;100.00
10806;BME280;5455;53.224;6.000;2023-05-07T03:27:35;101760.00;;;12.46;100.00
10806;BME280;5455;53.224;6.000;2023-05-07T03:30:03;101753.28;;;12.47;100.00
10806;BME280;5455;53.224;6.000;2023-05-07T03:32:30;101748.44;;;12.44;100.00
10806;BME280;5455;53.224;6.000;2023-05-07T03:34:57;101753.22;;;12.43;100.00
10806;BME280;5455;53.224;6.000;2023-05-07T03:37:25;101759.06;;;12.42;100.00
10806;BME280;5455;53.224;6.000;2023-05-07T03:39:52;101757.81;;;12.39;100.00
10806;BME280;5455;53.224;6.000;2023-05-07T03:42:19;101755.63;;;12.33;100.00
10806;BME280;5455;53.224;6.000;2023-05-07T03:44:49;101754.00;;;12.32;100.00
10806;BME280;5455;53.224;6.000;2023-05-07T03:47:17;101758.41;;;12.33;100.00
10806;BME280;5455;53.224;6.000;2023-05-07T03:49:45;101760.25;;;12.29;100.00
10806;BME280;5455;53.224;6.000;2023-05-07T03:52:13;101752.75;;;12.29;100.00
10806;BME280;5455;53.224;6.000;2023-05-07T03:54:41;101764.19;;;12.28;100.00
10806;BME280;5455;53.224;6.000;2023-05-07T03:57:10;101762.56;;;12.27;100.00
10806;BME280;5455;53.224;6.000;2023-05-07T03:59:37;101756.81;;;12.20;100.00
10806;BME280;5455;53.224;6.000;2023-05-07T04:02:05;101766.25;;;12.19;100.00
10806;BME280;5455;53.224;6.000;2023-05-07T04:04:33;101763.13;;;12.20;100.00
10806;BME280;5455;53.224;6.000;2023-05-07T04:07:00;101761.88;;;12.18;100.00
10806;BME280;5455;53.224;6.000;2023-05-07T04:09:29;101766.25;;;12.19;100.00
10806;BME280;5455;53.224;6.000;2023-05-07T04:11:57;101761.53;;;12.19;100.00
10806;BME280;5455;53.224;6.000;2023-05-07T04:14:24;101766.38;;;12.22;100.00
10806;BME280;5455;53.224;6.000;2023-05-07T04:16:51;101767.19;;;12.23;100.00
10806;BME280;5455;53.224;6.000;2023-05-07T04:19:18;101770.66;;;12.20;100.00
10806;BME280;5455;53.224;6.000;2023-05-07T04:21:49;101776.19;;;12.20;100.00
10806;BME280;5455;53.224;6.000;2023-05-07T04:24:16;101770.16;;;12.18;100.00
10806;BME280;5455;53.224;6.000;2023-05-07T04:26:44;101768.09;;;12.14;100.00
10806;BME280;5455;53.224;6.000;2023-05-07T04:29:11;101773.28;;;12.16;100.00
10806;BME280;5455;53.224;6.000;2023-05-07T04:31:38;101764.19;;;12.15;100.00
10806;BME280;5455;53.224;6.000;2023-05-07T04:34:05;101774.09;;;12.17;100.00
10806;BME280;5455;53.224;6.000;2023-05-07T04:36:33;101775.38;;;12.19;100.00
10806;BME280;5455;53.224;6.000;2023-05-07T04:39:04;101769.47;;;12.21;100.00
10806;BME280;5455;53.224;6.000;2023-05-07T04:41:31;101764.44;;;12.23;100.00
10806;BME280;5455;53.224;6.000;2023-05-07T04:44:00;101767.63;;;12.25;100.00
10806;BME280;5455;53.224;6.000;2023-05-07T04:46:30;101769.00;;;12.31;100.00
10806;BME280;5455;53.224;6.000;2023-05-07T04:48:57;101769.00;;;12.31;100.00
10806;BME280;5455;53.224;6.000;2023-05-07T04:51:25;101775.00;;;12.33;100.00
10806;BME280;5455;53.224;6.000;2023-05-07T04:53:53;101779.50;;;12.37;100.00
10806;BME280;5455;53.224;6.000;2023-05-07T04:56:20;101778.69;;;12.37;100.00
10806;BME280;5455;53.224;6.000;2023-05-07T04:58:47;101782.34;;;12.41;100.00
10806;BME280;5455;53.224;6.000;2023-05-07T05:01:17;101790.75;;;12.44;100.00
10806;BME280;5455;53.224;6.000;2023-05-07T05:03:44;101783.03;;;12.50;100.00
10806;BME280;5455;53.224;6.000;2023-05-07T05:06:11;101789.47;;;12.54;100.00
10806;BME280;5455;53.224;6.000;2023-05-07T05:08:38;101790.16;;;12.51;100.00
10806;BME280;5455;53.224;6.000;2023-05-07T05:11:05;101797.88;;;12.57;100.00
10806;BME280;5455;53.224;6.000;2023-05-07T05:13:35;101802.84;;;12.64;100.00
10806;BME280;5455;53.224;6.000;2023-05-07T05:16:09;101803.13;;;12.75;100.00
10806;BME280;5455;53.224;6.000;2023-05-07T05:18:37;101808.22;;;12.73;100.00
10806;BME280;5455;53.224;6.000;2023-05-07T05:21:05;101803.63;;;12.77;100.00
10806;BME280;5455;53.224;6.000;2023-05-07T05:23:33;101807.97;;;12.78;100.00
10806;BME280;5455;53.224;6.000;2023-05-07T05:26:00;101808.91;;;12.82;100.00
10806;BME280;5455;53.224;6.000;2023-05-07T05:28:30;101813.41;;;12.74;100.00
10806;BME280;5455;53.224;6.000;2023-05-07T05:30:58;101810.63;;;12.74;100.00
10806;BME280;5455;53.224;6.000;2023-05-07T05:33:27;101811.91;;;12.77;100.00
10806;BME280;5455;53.224;6.000;2023-05-07T05:36:00;101815.56;;;12.81;100.00
10806;BME280;5455;53.224;6.000;2023-05-07T05:38:27;101821.66;;;12.86;100.00
10806;BME280;5455;53.224;6.000;2023-05-07T05:40:55;101819.47;;;12.92;100.00
10806;BME280;5455;53.224;6.000;2023-05-07T05:43:22;101827.88;;;12.95;100.00
10806;BME280;5455;53.224;6.000;2023-05-07T05:45:50;101833.22;;;12.88;100.00
10806;BME280;5455;53.224;6.000;2023-05-07T05:48:17;101824.44;;;12.86;100.00
10806;BME280;5455;53.224;6.000;2023-05-07T05:50:44;101823.66;;;12.86;100.00
10806;BME280;5455;53.224;6.000;2023-05-07T05:53:12;101822.13;;;12.88;100.00
10806;BME280;5455;53.224;6.000;2023-05-07T05:55:39;101815.69;;;12.84;100.00
10806;BME280;5455;53.224;6.000;2023-05-07T05:58:06;101822.84;;;12.85;100.00
10806;BME280;5455;53.224;6.000;2023-05-07T06:00:37;101831.38;;;12.80;100.00
10806;BME280;5455;53.224;6.000;2023-05-07T06:03:05;101818.72;;;12.79;100.00
10806;BME280;5455;53.224;6.000;2023-05-07T06:05:34;101828.97;;;12.79;100.00
10806;BME280;5455;53.224;6.000;2023-05-07T06:08:04;101830.88;;;12.90;100.00
10806;BME280;5455;53.224;6.000;2023-05-07T06:10:33;101830.63;;;12.95;100.00
10806;BME280;5455;53.224;6.000;2023-05-07T06:13:04;101834.22;;;12.96;100.00
10806;BME280;5455;53.224;6.000;2023-05-07T06:15:33;101831.44;;;12.96;100.00
10806;BME280;5455;53.224;6.000;2023-05-07T06:18:05;101835.69;;;13.05;100.00
10806;BME280;5455;53.224;6.000;2023-05-07T06:20:33;101830.72;;;13.11;100.00
10806;BME280;5455;53.224;6.000;2023-05-07T06:23:02;101831.09;;;13.09;100.00
10806;BME280;5455;53.224;6.000;2023-05-07T06:25:32;101833.88;;;13.09;100.00
10806;BME280;5455;53.224;6.000;2023-05-07T06:27:59;101834.66;;;13.10;100.00
10806;BME280;5455;53.224;6.000;2023-05-07T06:30:26;101838.19;;;13.22;100.00
10806;BME280;5455;53.224;6.000;2023-05-07T06:32:54;101838.88;;;13.19;100.00
10806;BME280;5455;53.224;6.000;2023-05-07T06:35:22;101847.47;;;13.14;100.00
10806;BME280;5455;53.224;6.000;2023-05-07T06:37:49;101845.13;;;13.16;100.00
10806;BME280;5455;53.224;6.000;2023-05-07T06:40:21;101846.81;;;13.33;100.00
10806;BME280;5455;53.224;6.000;2023-05-07T06:42:48;101847.47;;;13.42;100.00
10806;BME280;5455;53.224;6.000;2023-05-07T06:45:27;101848.59;;;13.41;100.00
10806;BME280;5455;53.224;6.000;2023-05-07T06:47:55;101852.19;;;13.42;100.00
10806;BME280;5455;53.224;6.000;2023-05-07T06:50:23;101856.31;;;13.48;100.00
10806;BME280;5455;53.224;6.000;2023-05-07T06:52:54;101858.81;;;13.53;100.00
10806;BME280;5455;53.224;6.000;2023-05-07T06:55:21;101853.09;;;13.61;100.00
10806;BME280;5455;53.224;6.000;2023-05-07T06:57:48;101862.34;;;13.65;100.00
10806;BME280;5455;53.224;6.000;2023-05-07T07:00:17;101870.38;;;13.70;100.00
10806;BME280;5455;53.224;6.000;2023-05-07T07:02:50;101863.69;;;13.71;100.00
10806;BME280;5455;53.224;6.000;2023-05-07T07:05:20;101878.47;;;13.75;100.00
10806;BME280;5455;53.224;6.000;2023-05-07T07:07:47;101873.28;;;13.90;100.00
10806;BME280;5455;53.224;6.000;2023-05-07T07:10:20;101878.38;;;13.88;100.00
10806;BME280;5455;53.224;6.000;2023-05-07T07:12:49;101880.16;;;13.80;100.00
10806;BME280;5455;53.224;6.000;2023-05-07T07:15:17;101885.25;;;13.78;100.00
10806;BME280;5455;53.224;6.000;2023-05-07T07:17:44;101888.47;;;13.80;100.00
10806;BME280;5455;53.224;6.000;2023-05-07T07:20:11;101883.72;;;13.80;100.00
10806;BME280;5455;53.224;6.000;2023-05-07T07:22:40;101887.69;;;13.95;100.00
10806;BME280;5455;53.224;6.000;2023-05-07T07:25:07;101891.00;;;14.16;100.00
10806;BME280;5455;53.224;6.000;2023-05-07T07:27:37;101894.59;;;14.17;100.00
10806;BME280;5455;53.224;6.000;2023-05-07T07:30:05;101894.22;;;14.18;100.00
10806;BME280;5455;53.224;6.000;2023-05-07T07:32:34;101892.91;;;14.44;100.00
10806;BME280;5455;53.224;6.000;2023-05-07T07:35:01;101896.59;;;14.48;100.00
10806;BME280;5455;53.224;6.000;2023-05-07T07:37:28;101896.59;;;14.48;100.00
10806;BME280;5455;53.224;6.000;2023-05-07T07:39:56;101901.22;;;14.59;100.00
10806;BME280;5455;53.224;6.000;2023-05-07T07:42:24;101906.91;;;14.66;100.00
10806;BME280;5455;53.224;6.000;2023-05-07T07:44:52;101899.19;;;14.75;100.00
10806;BME280;5455;53.224;6.000;2023-05-07T07:47:21;101901.09;;;14.71;100.00
10806;BME280;5455;53.224;6.000;2023-05-07T07:49:50;101896.41;;;14.75;100.00
10806;BME280;5455;53.224;6.000;2023-05-07T07:52:18;101900.78;;;14.92;100.00
10806;BME280;5455;53.224;6.000;2023-05-07T07:54:45;101906.56;;;15.03;100.00
10806;BME280;5455;53.224;6.000;2023-05-07T07:57:12;101905.09;;;15.09;100.00
10806;BME280;5455;53.224;6.000;2023-05-07T07:59:40;101896.22;;;15.19;100.00
10806;BME280;5455;53.224;6.000;2023-05-07T08:02:11;101895.41;;;15.18;100.00
10806;BME280;5455;53.224;6.000;2023-05-07T08:04:39;101900.06;;;15.14;100.00
10806;BME280;5455;53.224;6.000;2023-05-07T08:07:07;101897.00;;;15.38;100.00
10806;BME280;5455;53.224;6.000;2023-05-07T08:09:38;101899.00;;;15.38;100.00
10806;BME280;5455;53.224;6.000;2023-05-07T08:12:06;101897.00;;;15.38;100.00
10806;BME280;5455;53.224;6.000;2023-05-07T08:14:34;101901.69;;;15.34;100.00
10806;BME280;5455;53.224;6.000;2023-05-07T08:17:04;101901.09;;;15.44;100.00
10806;BME280;5455;53.224;6.000;2023-05-07T08:19:32;101896.66;;;15.40;100.00
10806;BME280;5455;53.224;6.000;2023-05-07T08:22:00;101898.44;;;15.48;100.00
10806;BME280;5455;53.224;6.000;2023-05-07T08:24:28;101893.69;;;15.49;100.00
10806;BME280;5455;53.224;6.000;2023-05-07T08:26:55;101896.16;;;15.54;100.00
10806;BME280;5455;53.224;6.000;2023-05-07T08:29:22;101890.50;;;15.69;100.00
10806;BME280;5455;53.224;6.000;2023-05-07T08:31:49;101894.59;;;15.56;100.00
10806;BME280;5455;53.224;6.000;2023-05-07T08:34:16;101898.50;;;15.52;100.00
10806;BME280;5455;53.224;6.000;2023-05-07T08:36:45;101892.22;;;15.55;100.00
10806;BME280;5455;53.224;6.000;2023-05-07T08:39:18;101888.50;;;15.47;100.00
10806;BME280;5455;53.224;6.000;2023-05-07T08:41:48;101889.63;;;15.27;100.00
10806;BME280;5455;53.224;6.000;2023-05-07T08:44:21;101891.28;;;15.47;100.00
10806;BME280;5455;53.224;6.000;2023-05-07T08:46:51;101897.47;;;15.60;100.00
10806;BME280;5455;53.224;6.000;2023-05-07T08:49:22;101902.16;;;15.97;100.00
10806;BME280;5455;53.224;6.000;2023-05-07T08:51:49;101897.41;;;15.98;100.00
10806;BME280;5455;53.224;6.000;2023-05-07T08:54:18;101897.41;;;15.98;100.00
10806;BME280;5455;53.224;6.000;2023-05-07T08:56:47;101906.50;;;15.95;100.00
10806;BME280;5455;53.224;6.000;2023-05-07T08:59:15;101904.28;;;16.04;100.00
10806;BME280;5455;53.224;6.000;2023-05-07T09:01:43;101905.13;;;16.08;100.00
10806;BME280;5455;53.224;6.000;2023-05-07T09:04:11;101909.69;;;15.97;100.00
10806;BME280;5455;53.224;6.000;2023-05-07T09:06:40;101907.72;;;16.20;100.00
10806;BME280;5455;53.224;6.000;2023-05-07T09:09:14;101912.41;;;16.39;100.00
10806;BME280;5455;53.224;6.000;2023-05-07T09:11:41;101926.41;;;16.65;100.00
10806;BME280;5455;53.224;6.000;2023-05-07T09:14:09;101917.13;;;16.84;100.00
10806;BME280;5455;53.224;6.000;2023-05-07T09:16:39;101921.00;;;16.53;100.00
10806;BME280;5455;53.224;6.000;2023-05-07T09:19:07;101924.63;;;16.80;100.00
10806;BME280;5455;53.224;6.000;2023-05-07T09:21:35;101926.44;;;17.21;100.00
10806;BME280;5455;53.224;6.000;2023-05-07T09:24:06;101926.25;;;17.40;100.00
10806;BME280;5455;53.224;6.000;2023-05-07T09:26:37;101928.22;;;17.36;100.00
10806;BME280;5455;53.224;6.000;2023-05-07T09:29:05;101930.63;;;17.68;100.00
10806;BME280;5455;53.224;6.000;2023-05-07T09:31:36;101931.50;;;17.75;100.00
10806;BME280;5455;53.224;6.000;2023-05-07T09:34:06;101929.97;;;17.51;100.00
10806;BME280;5455;53.224;6.000;2023-05-07T09:36:35;101930.16;;;17.32;100.00
10806;BME280;5455;53.224;6.000;2023-05-07T09:39:02;101929.41;;;17.35;100.00
10806;BME280;5455;53.224;6.000;2023-05-07T09:41:30;101922.69;;;17.73;100.00
10806;BME280;5455;53.224;6.000;2023-05-07T09:44:21;101916.13;;;17.55;100.00
10806;BME280;5455;53.224;6.000;2023-05-07T09:46:53;101917.97;;;17.77;100.00
10806;BME280;5455;53.224;6.000;2023-05-07T09:49:29;101920.22;;;17.65;100.00
10806;BME280;5455;53.224;6.000;2023-05-07T09:52:05;101924.00;;;17.83;100.00
10806;BME280;5455;53.224;6.000;2023-05-07T09:54:45;101920.75;;;18.14;100.00
10806;BME280;5455;53.224;6.000;2023-05-07T09:57:16;101919.00;;;17.99;100.00
10806;BME280;5455;53.224;6.000;2023-05-07T09:59:50;101927.13;;;18.14;100.00
10806;BME280;5455;53.224;6.000;2023-05-07T10:02:19;101921.84;;;18.02;100.00
10806;BME280;5455;53.224;6.000;2023-05-07T10:04:52;101921.72;;;17.92;100.00
10806;BME280;5455;53.224;6.000;2023-05-07T10:07:24;101929.13;;;18.14;100.00
10806;BME280;5455;53.224;6.000;2023-05-07T10:09:55;101925.13;;;18.15;100.00
10806;BME280;5455;53.224;6.000;2023-05-07T10:12:31;101923.97;;;17.79;100.00
10806;BME280;5455;53.224;6.000;2023-05-07T10:15:09;101926.75;;;17.79;100.00
10806;BME280;5455;53.224;6.000;2023-05-07T10:17:40;101931.25;;;17.91;100.00
10806;BME280;5455;53.224;6.000;2023-05-07T10:20:09;101924.47;;;17.88;100.00
10806;BME280;5455;53.224;6.000;2023-05-07T10:22:42;101936.22;;;18.04;100.00
10806;BME280;5455;53.224;6.000;2023-05-07T10:25:18;101930.75;;;17.82;100.00
10806;BME280;5455;53.224;6.000;2023-05-07T10:27:49;101938.03;;;17.90;100.00
10806;BME280;5455;53.224;6.000;2023-05-07T10:33:06;101934.66;;;17.74;100.00
10806;BME280;5455;53.224;6.000;2023-05-07T10:35:40;101929.75;;;17.63;100.00
10806;BME280;5455;53.224;6.000;2023-05-07T10:38:09;101933.00;;;17.66;100.00
10806;BME280;5455;53.224;6.000;2023-05-07T10:40:39;101932.69;;;17.74;100.00
10806;BME280;5455;53.224;6.000;2023-05-07T10:43:07;101927.47;;;17.73;100.00
10806;BME280;5455;53.224;6.000;2023-05-07T10:46:19;101925.28;;;17.89;100.00
10806;BME280;5455;53.224;6.000;2023-05-07T10:51:39;101929.81;;;18.04;100.00
10806;BME280;5455;53.224;6.000;2023-05-07T10:54:20;101927.06;;;17.71;100.00
10806;BME280;5455;53.224;6.000;2023-05-07T10:56:55;101928.91;;;17.93;100.00
10806;BME280;5455;53.224;6.000;2023-05-07T10:59:31;101921.72;;;18.32;100.00
10806;BME280;5455;53.224;6.000;2023-05-07T11:02:06;101929.31;;;18.39;100.00
10806;BME280;5455;53.224;6.000;2023-05-07T11:04:45;101926.34;;;18.58;100.00
10806;BME280;5455;53.224;6.000;2023-05-07T11:07:26;101923.13;;;18.56;100.00
10806;BME280;5455;53.224;6.000;2023-05-07T11:09:58;101931.38;;;18.45;100.00
10806;BME280;5455;53.224;6.000;2023-05-07T11:12:52;101931.88;;;18.54;100.00
10806;BME280;5455;53.224;6.000;2023-05-07T11:15:40;101924.06;;;18.30;100.00
10806;BME280;5455;53.224;6.000;2023-05-07T11:18:19;101923.47;;;18.07;100.00
10806;BME280;5455;53.224;6.000;2023-05-07T11:20:56;101925.63;;;18.24;100.00
10806;BME280;5455;53.224;6.000;2023-05-07T11:23:57;101923.63;;;18.68;100.00
10806;BME280;5455;53.224;6.000;2023-05-07T11:26:47;101927.41;;;18.97;100.00
10806;BME280;5455;53.224;6.000;2023-05-07T11:29:22;101935.38;;;18.99;100.00
10806;BME280;5455;53.224;6.000;2023-05-07T11:31:55;101930.25;;;19.08;100.00
10806;BME280;5455;53.224;6.000;2023-05-07T11:34:27;101937.84;;;19.04;100.00
10806;BME280;5455;53.224;6.000;2023-05-07T11:36:58;101925.44;;;19.05;100.00
10806;BME280;5455;53.224;6.000;2023-05-07T11:40:04;101940.75;;;19.25;100.00
10806;BME280;5455;53.224;6.000;2023-05-07T11:42:37;101938.88;;;19.43;100.00
10806;BME280;5455;53.224;6.000;2023-05-07T11:45:06;101937.72;;;19.51;100.00
10806;BME280;5455;53.224;6.000;2023-05-07T11:47:33;101930.91;;;19.56;100.00
10806;BME280;5455;53.224;6.000;2023-05-07T11:50:05;101935.34;;;19.60;100.00
10806;BME280;5455;53.224;6.000;2023-05-07T11:52:34;101951.97;;;19.36;100.00
10806;BME280;5455;53.224;6.000;2023-05-07T11:55:02;101940.34;;;19.19;100.00
10806;BME280;5455;53.224;6.000;2023-05-07T11:57:33;101940.41;;;19.37;100.00
10806;BME280;5455;53.224;6.000;2023-05-07T12:00:01;101952.63;;;19.91;100.00
10806;BME280;5455;53.224;6.000;2023-05-07T12:02:43;101942.63;;;19.83;100.00
10806;BME280;5455;53.224;6.000;2023-05-07T12:05:10;101948.50;;;19.56;100.00
10806;BME280;5455;53.224;6.000;2023-05-07T12:07:37;101954.13;;;19.63;100.00
10806;BME280;5455;53.224;6.000;2023-05-07T12:10:05;101943.44;;;19.90;100.00
10806;BME280;5455;53.224;6.000;2023-05-07T12:12:40;101946.28;;;20.22;100.00
10806;BME280;5455;53.224;6.000;2023-05-07T12:15:09;101943.47;;;20.08;100.00
10806;BME280;5455;53.224;6.000;2023-05-07T12:17:37;101951.38;;;19.70;100.00
10806;BME280;5455;53.224;6.000;2023-05-07T12:20:05;101944.19;;;19.76;100.00
10806;BME280;5455;53.224;6.000;2023-05-07T12:22:32;101945.09;;;20.12;100.00
10806;BME280;5455;53.224;6.000;2023-05-07T12:24:59;101953.06;;;20.14;100.00
10806;BME280;5455;53.224;6.000;2023-05-07T12:27:27;101945.09;;;20.23;100.00
10806;BME280;5455;53.224;6.000;2023-05-07T12:29:54;101949.53;;;20.45;100.00
10806;BME280;5455;53.224;6.000;2023-05-07T12:32:21;101948.75;;;20.45;100.00
10806;BME280;5455;53.224;6.000;2023-05-07T12:34:52;101950.75;;;20.51;100.00
10806;BME280;5455;53.224;6.000;2023-05-07T12:37:23;101945.94;;;20.38;100.00
10806;BME280;5455;53.224;6.000;2023-05-07T12:40:08;101950.75;;;20.51;100.00
10806;BME280;5455;53.224;6.000;2023-05-07T12:42:37;101948.75;;;20.69;100.00
10806;BME280;5455;53.224;6.000;2023-05-07T12:45:15;101956.34;;;20.72;100.00
10806;BME280;5455;53.224;6.000;2023-05-07T12:47:44;101948.66;;;21.26;100.00
10806;BME280;5455;53.224;6.000;2023-05-07T12:50:13;101956.03;;;21.92;100.00
10806;BME280;5455;53.224;6.000;2023-05-07T12:52:41;101958.16;;;22.33;94.87
10806;BME280;5455;53.224;6.000;2023-05-07T12:55:12;101954.81;;;21.86;90.40
10806;BME280;5455;53.224;6.000;2023-05-07T12:57:42;101951.28;;;21.72;90.94
10806;BME280;5455;53.224;6.000;2023-05-07T13:00:09;101956.03;;;21.92;93.76
10806;BME280;5455;53.224;6.000;2023-05-07T13:02:41;101959.72;;;21.72;89.90
10806;BME280;5455;53.224;6.000;2023-05-07T13:05:11;101958.38;;;21.98;92.30
10806;BME280;5455;53.224;6.000;2023-05-07T13:07:39;101965.06;;;22.21;89.33
10806;BME280;5455;53.224;6.000;2023-05-07T13:10:08;101961.66;;;21.82;87.71